Elmora, New Jersey
Current Conditions -  °F | °C
As of 11:35 AM on Saturday 20 Dec 2014 (Local Time) from KLDJ Reporting Station
Overcast Overcast  
Wind Chill: 35°   Ceiling: 2500
Heat Index: 35°   Visibility: 10mi
Dew Point: 25°   Wind: 3mph
Humidity: 65%   Direction: 330°NNW
Pressure: 30.32"   Gusts: NA
Location:  40.6531°N, 74.2169°W
Report Text: KLDJ 201635Z AUTO 33003KT 10SM OVC025 02/M04 A3032 RMK AO2 T00191041
Loading
Personal Weather Stations






























Interactive Weather Map New forecast layout! Learn more

10-Day Weather Forecast

Advertisements
Track Severe Weather on mobile